Hilt, California
Current Conditions -  °F | °C
As of 12:53 AM on Sunday 23 Nov 2014 (Local Time) from KSIY Reporting Station
Clear Clear  
Wind Chill: 25°   Ceiling: Unl
Heat Index: 30°   Visibility: 10mi
Dew Point: 29°   Wind: 5mph
Humidity: 96%   Direction: 150°SSE
Pressure: 30.33"   Gusts: NA
Location:  41.9064°N, 122.501°W
Report Text: KSIY 230853Z AUTO 15004KT 10SM CLR M01/M02 A3033 RMK AO2 SLP291 T10111017 51010
Loading
Personal Weather Stations






























Interactive Weather Map New forecast layout! Learn more

10-Day Weather Forecast

Advertisements
Track Severe Weather on mobile